Terminal Aerodrome Forecast
Issued by NWS Wakefield, VA

Home | Current Version | Previous Version | Text Only | Print | Product List | Glossary On
Versions: 1 2 3 4 5 6 7 8 9 10 11 12 13 14 15
313
FTUS41 KAKQ 140522
TAFSBY
TAF
KSBY 140522Z 1406/1506 31012G18KT P6SM SCT050
     FM140900 32010G17KT P6SM SKC
     FM142100 VRB05KT P6SM SCT250
     FM150300 00000KT P6SM SCT060 BKN100=

USA.gov is the U.S. government's official web portal to all federal, state and local government web resources and services.